KIND/IND METAR and TAF weather

Enter ICAO airport designator
Station Type Date Time Source
KIND METAR 2019/10/15 17:54 UTC NOAA

KIND 151754Z 19016G23KT 10SM SCT044 21/11 A2989 RMK AO2 PK WND 18027/1656 SLP120 T02110111 10211 20061 58032


Station Type Date Time Source
KIND Decoded METAR 2019/10/15 17:54 UTC NOAA

INDIANAPOLIS INTERNATIONAL AIRPORT , IN, United States (KIND) 39-43N 86-17W 242M
Oct 15, 2019 - 01:54 PM EDT / 2019.10.15 1754 UTC
Wind: from the S (190 degrees) at 18 MPH (16 KT) gusting to 26 MPH (23 KT):0
Visibility: 10 mile(s):0
Sky conditions: partly cloudy
Temperature: 70.0 F (21.1 C)
Dew Point: 52.0 F (11.1 C)
Relative Humidity: 52%
Pressure (altimeter): 29.89 in. Hg (1012 hPa)
Pressure tendency: 0.09 inches (3.2 hPa) lower than three hours ago
ob: KIND 151754Z 19016G23KT 10SM SCT044 21/11 A2989 RMK AO2 PK WND 18027/1656 SLP120 T02110111 10211 20061 58032
cycle: 18

Station Type Date Time Source
KIND TAF 2019/10/15 18:24 UTC NOAA

TAF KIND 151723Z 1518/1624 18016KT P6SM BKN040
FM152100 21011G19KT P6SM BKN035
FM160000 22008KT P6SM VCSH OVC026
FM160600 30013KT P6SM OVC050
FM161400 29014G22KT P6SM BKN024

Example: see airport list